Holbrook, Nebraska
Current Conditions -  °F | °C
As of 4:53 PM on Wednesday 22 Oct 2014 (Local Time) from KMCK Reporting Station
Clear Clear  
Wind Chill: 22°   Ceiling: Unl
Heat Index: 22°   Visibility: 10mi
Dew Point: 11°   Wind: 9mph
Humidity: 49%   Direction: 40°NE
Pressure: 30"   Gusts: NA
Location:  40.3°N, 100.01°W
Report Text: KMCK 222153Z AUTO 04008KT 10SM CLR 22/11 A3000 RMK AO2 SLP143 T02170106
Loading
Personal Weather Stations






























Interactive Weather Map
Tropical Storm Tracking
New forecast layout! Learn more

10-Day Weather Forecast

Advertisements
Track Severe Weather on mobile